Time;durP1;ratioP1;P1;durP2;ratioP2;P2;SDS_P1;SDS_P2;PMS_P1;PMS_P2;Temp;Humidity;BMP_temperature;BMP_pressure;BME280_temperature;BME280_humidity;BME280_pressure;Samples;Min_cycle;Max_cycle;Signal;HPM_P1;HPM_P2
2022/03/18 00:00:20;;;;;;;4.47;4.27;;;9.10;99.90;;;;;;4985638;28;20753;-63
2022/03/18 00:02:48;;;;;;;4.47;4.27;;;9.10;99.90;;;;;;4994704;28;20201;-64
2022/03/18 00:05:16;;;;;;;4.57;4.37;;;9.10;99.90;;;;;;4992394;28;20277;-65
2022/03/18 00:07:44;;;;;;;4.50;4.30;;;9.00;99.90;;;;;;4985518;28;20711;-65
2022/03/18 00:10:13;;;;;;;4.30;4.10;;;9.10;99.90;;;;;;4986500;28;20307;-65
2022/03/18 00:12:40;;;;;;;4.70;4.50;;;9.10;99.90;;;;;;4978313;28;20632;-64
2022/03/18 00:15:09;;;;;;;4.40;4.20;;;9.10;99.90;;;;;;4981416;28;20238;-64
2022/03/18 00:17:36;;;;;;;4.37;4.17;;;9.10;99.90;;;;;;4993442;28;20825;-65
2022/03/18 00:20:04;;;;;;;5.00;4.70;;;9.00;99.90;;;;;;4993674;28;20233;-65
2022/03/18 00:22:31;;;;;;;4.60;4.40;;;9.00;99.90;;;;;;4992629;28;20293;-65
2022/03/18 00:24:58;;;;;;;4.50;4.30;;;9.00;99.90;;;;;;4994919;28;20209;-65
2022/03/18 00:27:27;;;;;;;4.67;4.47;;;9.00;99.90;;;;;;4992533;28;20234;-64
2022/03/18 00:29:54;;;;;;;4.33;4.13;;;9.10;99.90;;;;;;4990828;28;20214;-64
2022/03/18 00:32:21;;;;;;;4.40;4.20;;;9.00;99.90;;;;;;4991263;28;20260;-65
2022/03/18 00:34:48;;;;;;;4.40;4.20;;;9.00;99.90;;;;;;4992695;28;20209;-65
2022/03/18 00:37:15;;;;;;;4.30;4.10;;;9.10;99.90;;;;;;4992858;28;20301;-64
2022/03/18 00:39:42;;;;;;;4.17;3.97;;;9.00;99.90;;;;;;4992173;28;20202;-66
2022/03/18 00:42:09;;;;;;;3.93;3.73;;;9.10;99.90;;;;;;4992035;28;20206;-69
2022/03/18 00:44:38;;;;;;;4.30;4.10;;;9.10;99.90;;;;;;4994028;28;20206;-64
2022/03/18 00:51:59;;;;;;;4.10;3.90;;;9.10;99.90;;;;;;4978342;28;20265;-65
2022/03/18 00:52:37;;;;;;;4.30;4.10;;;9.10;99.90;;;;;;4973990;28;20206;-64
2022/03/18 00:55:05;;;;;;;4.30;4.10;;;9.10;99.90;;;;;;4987258;28;20301;-64
2022/03/18 00:57:32;;;;;;;4.30;4.10;;;9.10;99.90;;;;;;4993608;28;20280;-64
2022/03/18 01:00:00;;;;;;;4.27;4.07;;;9.10;99.90;;;;;;4993857;28;20206;-64
2022/03/18 01:02:27;;;;;;;4.07;3.80;;;9.10;99.90;;;;;;4984491;28;20285;-63
2022/03/18 01:04:54;;;;;;;3.97;3.77;;;9.10;99.90;;;;;;4996760;28;20229;-64
2022/03/18 01:07:21;;;;;;;4.27;4.07;;;9.10;99.90;;;;;;4996177;28;20239;-64
2022/03/18 01:09:48;;;;;;;4.07;3.87;;;9.10;99.90;;;;;;4995946;28;20313;-64
2022/03/18 01:12:15;;;;;;;3.70;3.50;;;9.10;99.90;;;;;;4993730;28;20764;-64
2022/03/18 01:14:42;;;;;;;3.80;3.60;;;9.10;99.90;;;;;;4997777;28;20301;-64
2022/03/18 01:17:10;;;;;;;4.50;4.23;;;9.20;99.90;;;;;;5000505;28;20317;-64
2022/03/18 01:19:37;;;;;;;3.93;3.73;;;9.10;99.90;;;;;;5004095;28;20774;-64
2022/03/18 01:22:04;;;;;;;3.60;3.40;;;9.10;99.90;;;;;;5007989;28;20213;-65
2022/03/18 01:24:31;;;;;;;3.77;3.57;;;9.10;99.90;;;;;;5002260;28;20267;-65
2022/03/18 01:26:59;;;;;;;3.77;3.57;;;9.00;99.90;;;;;;4994347;28;20282;-64
2022/03/18 01:29:25;;;;;;;3.57;3.37;;;9.00;99.90;;;;;;4992825;28;20715;-64
2022/03/18 01:31:52;;;;;;;3.50;3.30;;;9.00;99.90;;;;;;4992833;28;20301;-64
2022/03/18 01:34:21;;;;;;;3.57;3.37;;;9.00;99.90;;;;;;4983825;28;20285;-64
2022/03/18 01:36:49;;;;;;;3.50;3.30;;;9.00;99.90;;;;;;4993707;28;20738;-64
2022/03/18 01:39:16;;;;;;;3.00;2.90;;;9.00;99.90;;;;;;4994111;28;20210;-64
2022/03/18 01:41:43;;;;;;;3.20;3.00;;;9.00;99.90;;;;;;4992819;28;20301;-64
2022/03/18 01:44:11;;;;;;;3.53;3.33;;;9.00;99.90;;;;;;4997755;28;20229;-64
2022/03/18 01:46:38;;;;;;;2.90;2.70;;;9.00;99.90;;;;;;4993488;28;20293;-63
2022/03/18 01:49:05;;;;;;;2.90;2.73;;;8.90;99.90;;;;;;4992761;28;20232;-64
2022/03/18 01:51:34;;;;;;;2.87;2.70;;;8.90;99.90;;;;;;4991801;28;20753;-63
2022/03/18 01:56:46;;;;;;;2.83;2.73;;;8.90;99.90;;;;;;4992968;28;20220;-65
2022/03/18 01:59:13;;;;;;;2.80;2.60;;;8.90;99.90;;;;;;4992778;28;20293;-65
2022/03/18 02:01:41;;;;;;;2.63;2.53;;;8.90;99.90;;;;;;4991823;28;20216;-66
2022/03/18 02:04:09;;;;;;;2.70;2.53;;;9.00;99.90;;;;;;4992335;28;20663;-65
2022/03/18 02:06:38;;;;;;;2.57;2.40;;;9.00;99.90;;;;;;4993145;28;20202;-64
2022/03/18 02:09:06;;;;;;;2.60;2.40;;;8.90;99.90;;;;;;4992627;28;20230;-64
2022/03/18 02:11:33;;;;;;;2.63;2.53;;;9.00;99.90;;;;;;4991739;28;20220;-64
2022/03/18 02:13:59;;;;;;;2.90;2.70;;;9.00;99.90;;;;;;4992653;28;20248;-65
2022/03/18 02:16:26;;;;;;;2.60;2.50;;;8.90;99.90;;;;;;4992483;28;20237;-64
2022/03/18 02:18:53;;;;;;;2.50;2.40;;;8.90;99.90;;;;;;4992512;28;20282;-65
2022/03/18 02:21:21;;;;;;;2.20;2.10;;;8.90;99.90;;;;;;4991436;28;20639;-64
2022/03/18 02:23:50;;;;;;;2.23;2.13;;;8.80;99.90;;;;;;4992378;28;20619;-63
2022/03/18 02:26:17;;;;;;;2.43;2.33;;;8.80;99.90;;;;;;4992684;28;20214;-64
2022/03/18 02:28:44;;;;;;;2.57;2.47;;;8.80;99.90;;;;;;4991948;28;20642;-64
2022/03/18 02:31:10;;;;;;;2.40;2.30;;;8.80;99.90;;;;;;4991644;28;20301;-66
2022/03/18 02:33:37;;;;;;;2.20;2.10;;;8.70;99.90;;;;;;4987802;28;20216;-64
2022/03/18 02:36:05;;;;;;;2.20;2.10;;;8.70;99.90;;;;;;4988521;28;20588;-64
2022/03/18 02:38:33;;;;;;;2.23;2.13;;;8.80;99.90;;;;;;4991917;28;20224;-65
2022/03/18 02:41:01;;;;;;;2.50;2.30;;;8.80;99.90;;;;;;4994696;28;20237;-63
2022/03/18 02:43:28;;;;;;;2.17;2.07;;;8.80;99.90;;;;;;4997064;28;20238;-65
2022/03/18 02:45:55;;;;;;;2.47;2.30;;;8.80;99.90;;;;;;4996312;28;20637;-64
2022/03/18 02:48:22;;;;;;;2.53;2.40;;;8.80;99.90;;;;;;4984488;28;20273;-64
2022/03/18 02:50:49;;;;;;;2.43;2.33;;;8.80;99.90;;;;;;4988048;28;20288;-63
2022/03/18 02:53:16;;;;;;;2.20;2.10;;;8.70;99.90;;;;;;4991880;28;20272;-63
2022/03/18 02:55:43;;;;;;;2.60;2.40;;;8.70;99.90;;;;;;4992393;28;20293;-66
2022/03/18 02:58:11;;;;;;;2.60;2.40;;;8.70;99.90;;;;;;4992253;28;20224;-66
2022/03/18 03:00:38;;;;;;;2.50;2.40;;;8.70;99.90;;;;;;4991652;28;20285;-63
2022/03/18 03:03:05;;;;;;;2.17;2.07;;;8.70;99.90;;;;;;4991074;28;20209;-65
2022/03/18 03:08:28;;;;;;;2.40;2.30;;;8.70;99.90;;;;;;4912303;29;20220;-64
2022/03/18 03:10:56;;;;;;;2.30;2.20;;;8.60;99.90;;;;;;4972909;28;20210;-63
2022/03/18 03:13:24;;;;;;;2.40;2.30;;;8.80;99.90;;;;;;4991256;28;20308;-63
2022/03/18 03:15:51;;;;;;;2.83;2.63;;;8.60;99.90;;;;;;4992883;28;20278;-65
2022/03/18 03:18:18;;;;;;;2.30;2.20;;;8.60;99.90;;;;;;4993169;28;20288;-65
2022/03/18 03:20:45;;;;;;;2.50;2.30;;;8.60;99.90;;;;;;4992278;28;20292;-64
2022/03/18 03:23:12;;;;;;;2.40;2.30;;;8.50;99.90;;;;;;4990941;28;20292;-64
2022/03/18 03:25:40;;;;;;;2.47;2.37;;;8.50;99.90;;;;;;4992141;28;20409;-66
2022/03/18 03:28:07;;;;;;;2.60;2.40;;;8.50;99.90;;;;;;4991836;28;20230;-66
2022/03/18 03:30:35;;;;;;;4.50;2.47;;;8.50;99.90;;;;;;4991404;28;20764;-64
2022/03/18 03:33:02;;;;;;;2.00;1.87;;;8.50;99.90;;;;;;4991028;28;20216;-64
2022/03/18 03:35:29;;;;;;;2.10;2.00;;;8.50;99.90;;;;;;4994861;28;20341;-66
2022/03/18 03:37:56;;;;;;;2.03;1.93;;;8.60;99.90;;;;;;4995326;28;20596;-63
2022/03/18 03:40:24;;;;;;;2.57;2.37;;;8.50;99.90;;;;;;4994822;28;20209;-65
2022/03/18 03:42:52;;;;;;;2.40;2.30;;;8.50;99.90;;;;;;4994751;28;20209;-63
2022/03/18 03:45:19;;;;;;;2.20;2.10;;;8.50;99.90;;;;;;4995605;28;20210;-64
2022/03/18 03:47:47;;;;;;;2.33;2.17;;;8.50;99.90;;;;;;4995349;28;20337;-65
2022/03/18 03:50:14;;;;;;;2.30;2.20;;;8.50;99.90;;;;;;4994319;28;20321;-64
2022/03/18 03:52:41;;;;;;;2.30;2.20;;;8.40;99.90;;;;;;4994180;28;20296;-65
2022/03/18 03:55:10;;;;;;;2.33;2.23;;;8.40;99.90;;;;;;4995608;28;20289;-65
2022/03/18 03:57:38;;;;;;;2.57;2.37;;;8.40;99.90;;;;;;4995419;28;20251;-64
2022/03/18 04:00:06;;;;;;;2.73;2.53;;;8.40;99.90;;;;;;4994669;28;20216;-65
2022/03/18 04:02:33;;;;;;;2.37;2.27;;;8.40;99.90;;;;;;4993680;28;20206;-64
2022/03/18 04:05:02;;;;;;;2.27;2.13;;;8.40;99.90;;;;;;4995130;28;20309;-65
2022/03/18 04:07:28;;;;;;;2.40;2.30;;;8.40;99.90;;;;;;4994944;28;20796;-64
2022/03/18 04:09:55;;;;;;;2.30;2.20;;;8.30;99.90;;;;;;4994352;28;20230;-64
2022/03/18 04:12:23;;;;;;;2.27;2.17;;;8.40;99.90;;;;;;4994040;28;20214;-64
2022/03/18 04:14:51;;;;;;;2.80;2.60;;;8.40;99.90;;;;;;4994517;28;20240;-64
2022/03/18 04:17:18;;;;;;;2.30;2.20;;;8.40;99.90;;;;;;4995025;28;20313;-65
2022/03/18 04:19:45;;;;;;;2.50;2.40;;;8.40;99.90;;;;;;4994479;28;20220;-63
2022/03/18 04:22:13;;;;;;;2.30;2.20;;;8.40;99.90;;;;;;4994348;28;20277;-64
2022/03/18 04:24:40;;;;;;;2.47;2.27;;;8.40;99.90;;;;;;4995316;28;20317;-64
2022/03/18 04:27:07;;;;;;;2.40;2.30;;;8.40;99.90;;;;;;4995504;28;20956;-65
2022/03/18 04:29:34;;;;;;;2.40;2.30;;;8.40;99.90;;;;;;4995140;28;20316;-66
2022/03/18 04:32:01;;;;;;;2.13;2.03;;;8.40;99.90;;;;;;4993891;28;20310;-65
2022/03/18 04:34:27;;;;;;;2.60;2.23;;;8.40;99.90;;;;;;4997091;28;20206;-64
2022/03/18 04:36:54;;;;;;;2.40;2.20;;;8.40;99.90;;;;;;4995404;28;20309;-65
2022/03/18 04:39:23;;;;;;;2.37;2.27;;;8.50;99.90;;;;;;4994483;28;20234;-65
2022/03/18 04:41:49;;;;;;;2.40;2.20;;;8.40;99.90;;;;;;4993387;28;20246;-64
2022/03/18 04:44:16;;;;;;;2.10;2.00;;;8.40;99.90;;;;;;4993858;28;20289;-64
2022/03/18 04:46:43;;;;;;;2.33;2.23;;;8.40;99.90;;;;;;4993464;28;20785;-64
2022/03/18 04:49:10;;;;;;;2.30;2.20;;;8.40;99.90;;;;;;4993816;28;20565;-65
2022/03/18 04:51:37;;;;;;;2.50;2.30;;;8.30;99.90;;;;;;4994610;28;20237;-65
2022/03/18 04:54:04;;;;;;;2.33;2.13;;;8.30;99.90;;;;;;4995729;28;20212;-63
2022/03/18 04:59:18;;;;;;;2.37;2.27;;;8.30;99.90;;;;;;4994414;28;20337;-65
2022/03/18 05:01:45;;;;;;;2.17;2.07;;;8.30;99.90;;;;;;4993477;28;20248;-64
2022/03/18 05:04:12;;;;;;;2.27;2.17;;;8.20;99.90;;;;;;4993761;28;20293;-65
2022/03/18 05:06:39;;;;;;;2.43;2.20;;;8.20;99.90;;;;;;4993935;28;20241;-64
2022/03/18 05:09:06;;;;;;;2.37;2.23;;;8.20;99.90;;;;;;4993487;28;20387;-65
2022/03/18 05:11:34;;;;;;;2.20;2.10;;;8.20;99.90;;;;;;4992845;28;20305;-64
2022/03/18 05:14:01;;;;;;;2.37;2.27;;;8.30;99.90;;;;;;4993480;28;20202;-64
2022/03/18 05:16:28;;;;;;;2.30;2.17;;;8.20;99.90;;;;;;4993740;28;20284;-64
2022/03/18 05:18:55;;;;;;;2.60;2.40;;;8.20;99.90;;;;;;4993568;28;20317;-65
2022/03/18 05:21:22;;;;;;;2.30;2.10;;;8.20;99.90;;;;;;4992776;28;20206;-65
2022/03/18 05:23:49;;;;;;;2.17;2.03;;;8.20;99.90;;;;;;4993215;28;20696;-64
2022/03/18 05:26:16;;;;;;;2.80;2.60;;;8.20;99.90;;;;;;4993954;28;20293;-66
2022/03/18 05:28:46;;;;;;;2.30;2.17;;;8.10;99.90;;;;;;4993118;28;20728;-64
2022/03/18 05:31:13;;;;;;;2.67;2.47;;;8.10;99.90;;;;;;4988811;28;20206;-66
2022/03/18 05:33:40;;;;;;;2.60;2.40;;;8.10;99.90;;;;;;4991428;28;20289;-67
2022/03/18 05:36:07;;;;;;;2.20;2.10;;;8.10;99.90;;;;;;4991187;28;20214;-64
2022/03/18 05:38:34;;;;;;;2.20;2.10;;;8.10;99.90;;;;;;4980873;28;20296;-65
2022/03/18 05:41:00;;;;;;;2.27;2.17;;;8.10;99.90;;;;;;4988353;28;20248;-64
2022/03/18 05:43:27;;;;;;;2.43;2.23;;;8.10;99.90;;;;;;4992624;28;20201;-66
2022/03/18 05:45:56;;;;;;;2.50;2.40;;;8.10;99.90;;;;;;4987534;28;20597;-66
2022/03/18 05:48:23;;;;;;;2.13;2.03;;;8.10;99.90;;;;;;4992359;28;20284;-67
2022/03/18 05:50:51;;;;;;;2.13;2.00;;;8.10;99.90;;;;;;4992226;28;20252;-66
2022/03/18 05:53:18;;;;;;;2.27;2.17;;;8.10;99.90;;;;;;4990431;28;20293;-65
2022/03/18 05:58:30;;;;;;;2.53;2.33;;;8.20;99.90;;;;;;4991852;28;20241;-66
2022/03/18 06:00:59;;;;;;;2.67;2.50;;;8.10;99.90;;;;;;4985326;28;20645;-66
2022/03/18 06:03:26;;;;;;;2.50;2.30;;;8.20;99.90;;;;;;4990529;28;20288;-65
2022/03/18 06:05:53;;;;;;;2.43;2.23;;;8.20;99.90;;;;;;4987083;28;20206;-66
2022/03/18 06:13:48;;;;;;;2.10;2.00;;;8.20;99.90;;;;;;5004180;28;20220;-64
2022/03/18 06:16:17;;;;;;;2.27;2.17;;;8.10;99.90;;;;;;5001883;28;20234;-66
2022/03/18 06:18:43;;;;;;;1.93;1.83;;;8.10;99.90;;;;;;4983393;28;20226;-66
2022/03/18 06:21:11;;;;;;;2.37;2.17;;;8.10;99.90;;;;;;4985048;28;20206;-65
2022/03/18 06:23:38;;;;;;;2.30;2.10;;;8.10;99.90;;;;;;4987158;28;20202;-66
2022/03/18 06:26:05;;;;;;;2.47;2.37;;;8.10;99.90;;;;;;4995586;28;20220;-65
2022/03/18 06:28:32;;;;;;;2.30;2.20;;;8.10;99.90;;;;;;4992929;28;20230;-66
2022/03/18 06:31:00;;;;;;;2.17;2.07;;;8.10;99.90;;;;;;4998849;28;20244;-67
2022/03/18 06:33:28;;;;;;;2.27;2.17;;;8.10;99.90;;;;;;4985780;28;20209;-66
2022/03/18 06:35:55;;;;;;;2.30;2.10;;;8.10;99.90;;;;;;4976297;28;20234;-66
2022/03/18 06:38:22;;;;;;;2.07;1.97;;;8.10;99.90;;;;;;4976470;28;20226;-65
2022/03/18 06:40:49;;;;;;;2.90;2.50;;;8.10;99.90;;;;;;4979196;28;20280;-64
2022/03/18 06:43:16;;;;;;;2.33;2.23;;;8.10;99.90;;;;;;4989523;28;20229;-65
2022/03/18 06:45:43;;;;;;;2.13;2.03;;;8.10;99.90;;;;;;4984398;28;20286;-65
2022/03/18 06:48:10;;;;;;;2.30;2.10;;;8.10;99.90;;;;;;4990151;28;20313;-64
2022/03/18 06:50:39;;;;;;;2.20;2.10;;;8.00;99.90;;;;;;5004947;28;20214;-65
2022/03/18 06:53:06;;;;;;;2.40;2.30;;;8.10;99.90;;;;;;4997935;28;20296;-65
2022/03/18 06:55:33;;;;;;;2.20;2.10;;;8.20;99.90;;;;;;4995703;28;20627;-65
2022/03/18 06:57:59;;;;;;;2.00;1.90;;;8.20;99.90;;;;;;4999774;28;20308;-64
2022/03/18 07:00:26;;;;;;;2.40;2.20;;;8.30;99.90;;;;;;4998188;28;20855;-66
2022/03/18 07:02:53;;;;;;;2.03;1.93;;;8.30;99.90;;;;;;4994457;28;20206;-65
2022/03/18 07:05:20;;;;;;;2.13;2.03;;;8.30;99.90;;;;;;4996011;28;20648;-66
2022/03/18 07:07:49;;;;;;;2.00;1.90;;;8.30;99.90;;;;;;4996340;28;20253;-66
2022/03/18 07:10:16;;;;;;;2.37;2.17;;;8.40;99.90;;;;;;4999241;28;20309;-64
2022/03/18 07:12:43;;;;;;;2.30;2.20;;;8.40;99.90;;;;;;5000961;28;20246;-66
2022/03/18 07:15:19;;;;;;;2.23;2.13;;;8.40;99.90;;;;;;4997309;28;20214;-65
2022/03/18 07:17:59;;;;;;;2.20;2.10;;;8.40;99.90;;;;;;5006614;28;20294;-65
2022/03/18 07:20:28;;;;;;;2.40;2.30;;;8.40;99.90;;;;;;4998988;28;20194;-64
2022/03/18 07:23:06;;;;;;;2.37;2.27;;;8.50;99.90;;;;;;4994808;28;20209;-66
2022/03/18 07:25:34;;;;;;;2.60;2.40;;;8.70;99.90;;;;;;4994720;28;20728;-67
2022/03/18 07:28:01;;;;;;;2.33;2.23;;;8.80;99.90;;;;;;4987888;28;20256;-66
2022/03/18 07:30:28;;;;;;;2.20;2.10;;;9.00;99.90;;;;;;4994986;28;20664;-65
2022/03/18 07:32:55;;;;;;;2.30;2.20;;;9.10;99.90;;;;;;4994873;28;20708;-66
2022/03/18 07:35:22;;;;;;;2.37;2.27;;;9.10;99.90;;;;;;5004078;23;20268;-68
2022/03/18 07:37:50;;;;;;;2.40;2.20;;;9.00;99.90;;;;;;4995729;28;20224;-68
2022/03/18 07:40:18;;;;;;;2.60;2.40;;;9.00;99.90;;;;;;4996130;28;20751;-67
2022/03/18 07:42:47;;;;;;;2.60;2.50;;;9.00;99.90;;;;;;5002203;28;20213;-68
2022/03/18 07:45:18;;;;;;;2.50;2.30;;;9.00;99.90;;;;;;5003070;28;20253;-68
2022/03/18 07:47:45;;;;;;;2.47;2.37;;;8.90;99.90;;;;;;4988659;28;20562;-68
2022/03/18 07:50:12;;;;;;;2.80;2.60;;;9.00;99.90;;;;;;4995659;28;20248;-66
2022/03/18 07:52:39;;;;;;;2.90;2.40;;;9.00;99.90;;;;;;4995215;28;20226;-67
2022/03/18 07:55:06;;;;;;;2.80;2.60;;;9.10;99.90;;;;;;4998167;28;20827;-68
2022/03/18 07:57:35;;;;;;;2.50;2.40;;;9.10;99.90;;;;;;4999171;28;20284;-68
2022/03/18 08:00:02;;;;;;;2.30;2.20;;;9.10;99.90;;;;;;4996533;28;20292;-66
2022/03/18 08:02:29;;;;;;;2.37;2.27;;;9.20;99.90;;;;;;4995961;28;20202;-68
2022/03/18 08:04:56;;;;;;;2.57;2.47;;;9.30;99.90;;;;;;4996334;28;20598;-68
2022/03/18 08:07:22;;;;;;;2.70;2.60;;;9.30;99.90;;;;;;4996502;28;20237;-68
2022/03/18 08:09:49;;;;;;;2.60;2.40;;;9.40;99.90;;;;;;4995527;28;20226;-66
2022/03/18 08:12:16;;;;;;;2.83;2.63;;;9.40;99.90;;;;;;4995628;28;20233;-67
2022/03/18 08:14:44;;;;;;;2.37;2.27;;;9.40;99.90;;;;;;4996138;28;20230;-67
2022/03/18 08:17:12;;;;;;;2.50;2.40;;;9.60;99.90;;;;;;4995933;28;20249;-67
2022/03/18 08:19:39;;;;;;;2.73;2.53;;;9.40;99.90;;;;;;4994619;28;20204;-67
2022/03/18 08:22:07;;;;;;;3.00;2.80;;;9.40;99.90;;;;;;4995218;28;20233;-66
2022/03/18 08:24:33;;;;;;;2.50;2.40;;;9.50;99.90;;;;;;4995474;28;20232;-67
2022/03/18 08:27:00;;;;;;;2.90;2.80;;;9.60;99.90;;;;;;4995982;28;20236;-66
2022/03/18 08:29:27;;;;;;;2.53;2.43;;;9.70;99.90;;;;;;4996485;28;20754;-68
2022/03/18 08:31:55;;;;;;;2.67;2.47;;;9.80;99.90;;;;;;5004273;28;20202;-67
2022/03/18 08:34:22;;;;;;;2.70;2.60;;;9.90;99.90;;;;;;4996691;28;20631;-67
2022/03/18 08:36:49;;;;;;;2.53;2.43;;;10.00;99.90;;;;;;4994885;28;20759;-67
2022/03/18 08:39:16;;;;;;;2.90;2.70;;;10.00;99.90;;;;;;4994856;28;20264;-68
2022/03/18 08:41:43;;;;;;;2.93;2.73;;;10.00;99.90;;;;;;4994701;28;20233;-66
2022/03/18 08:44:10;;;;;;;2.70;2.60;;;10.10;99.90;;;;;;4994943;28;20300;-67
2022/03/18 08:46:37;;;;;;;2.83;2.63;;;10.20;99.90;;;;;;4994704;28;20210;-68
2022/03/18 08:49:06;;;;;;;2.63;2.43;;;10.10;99.90;;;;;;4994852;28;20210;-67
2022/03/18 08:51:33;;;;;;;2.90;2.70;;;10.20;99.90;;;;;;4986402;28;20231;-67
2022/03/18 08:54:02;;;;;;;2.97;2.77;;;10.30;99.90;;;;;;5000512;28;20208;-67
2022/03/18 08:56:29;;;;;;;2.50;2.40;;;10.30;99.90;;;;;;5014349;28;20225;-68
2022/03/18 08:58:56;;;;;;;2.70;2.50;;;10.30;99.90;;;;;;4987128;28;20377;-68
2022/03/18 09:01:24;;;;;;;2.53;2.40;;;10.30;99.90;;;;;;4992504;28;20294;-67
2022/03/18 09:03:51;;;;;;;2.67;2.47;;;10.40;99.90;;;;;;4984142;28;20729;-68
2022/03/18 09:06:20;;;;;;;2.50;2.40;;;10.30;99.90;;;;;;4987071;28;20222;-67
2022/03/18 09:08:46;;;;;;;4.80;2.63;;;10.40;99.90;;;;;;5012691;28;20239;-67
2022/03/18 09:11:13;;;;;;;2.77;2.63;;;10.40;99.90;;;;;;5006659;28;20789;-68
2022/03/18 09:13:40;;;;;;;2.87;2.67;;;10.30;99.90;;;;;;5015869;28;20248;-67
2022/03/18 09:16:07;;;;;;;2.53;2.43;;;10.30;99.90;;;;;;5015771;28;20264;-68
2022/03/18 09:18:34;;;;;;;2.40;2.30;;;10.30;99.90;;;;;;5014790;28;20205;-67
2022/03/18 09:21:01;;;;;;;2.67;2.57;;;10.60;99.90;;;;;;5015183;28;20292;-67
2022/03/18 09:23:29;;;;;;;2.50;2.40;;;10.60;99.90;;;;;;5015176;28;20696;-67
2022/03/18 09:25:56;;;;;;;2.80;2.70;;;10.70;99.90;;;;;;5015716;28;20253;-67
2022/03/18 09:28:24;;;;;;;2.50;2.40;;;10.80;99.90;;;;;;5016423;28;20215;-66
2022/03/18 09:30:51;;;;;;;3.13;2.90;;;10.80;99.90;;;;;;5014427;28;20257;-68
2022/03/18 09:33:18;;;;;;;3.00;2.80;;;11.00;99.90;;;;;;5016134;28;20205;-67
2022/03/18 09:35:45;;;;;;;2.60;2.50;;;11.00;99.90;;;;;;5018970;28;20233;-68
2022/03/18 09:38:12;;;;;;;2.73;2.63;;;11.20;99.90;;;;;;5018414;28;20209;-66
2022/03/18 09:40:42;;;;;;;2.70;2.60;;;11.30;99.90;;;;;;5014722;28;20281;-68
2022/03/18 09:43:10;;;;;;;2.80;2.70;;;11.40;99.90;;;;;;5013313;28;20229;-67
2022/03/18 09:45:39;;;;;;;3.20;3.00;;;11.50;99.90;;;;;;5013508;28;20257;-67
2022/03/18 09:48:09;;;;;;;2.90;2.70;;;11.50;99.90;;;;;;5013685;28;20205;-67
2022/03/18 09:50:36;;;;;;;3.00;2.80;;;11.50;99.90;;;;;;5003344;28;20226;-67
2022/03/18 09:53:03;;;;;;;3.00;2.80;;;11.60;99.90;;;;;;4983175;28;20293;-67
2022/03/18 09:55:31;;;;;;;3.07;2.90;;;11.70;99.90;;;;;;4984646;28;20221;-66
2022/03/18 09:57:59;;;;;;;2.80;2.70;;;11.70;99.90;;;;;;4976038;28;20242;-67
2022/03/18 10:00:26;;;;;;;3.07;2.87;;;11.90;99.90;;;;;;4979344;28;20207;-66
2022/03/18 10:03:08;;;;;;;2.90;2.80;;;12.00;99.90;;;;;;4977809;28;20209;-67
2022/03/18 10:05:35;;;;;;;3.30;3.10;;;12.00;99.90;;;;;;4978878;28;20234;-67
2022/03/18 10:08:03;;;;;;;3.00;2.90;;;12.30;99.90;;;;;;4981626;28;20206;-66
2022/03/18 10:10:30;;;;;;;2.70;2.60;;;12.50;99.90;;;;;;4988260;28;20305;-66
2022/03/18 10:13:04;;;;;;;3.30;3.10;;;12.50;99.90;;;;;;4984067;28;20242;-66
2022/03/18 10:15:31;;;;;;;2.90;2.80;;;12.70;99.90;;;;;;4991326;28;20222;-68
2022/03/18 10:18:00;;;;;;;2.93;2.83;;;12.60;99.90;;;;;;4991796;28;20193;-67
2022/03/18 10:20:35;;;;;;;2.80;2.70;;;12.70;99.90;;;;;;4996549;28;20291;-68
2022/03/18 10:23:18;;;;;;;3.03;2.93;;;12.80;99.90;;;;;;4989524;28;20575;-67
2022/03/18 10:25:50;;;;;;;3.10;2.90;;;13.10;99.90;;;;;;4999433;28;20253;-65
2022/03/18 10:28:36;;;;;;;3.30;3.10;;;13.00;99.90;;;;;;4989022;28;20233;-65
2022/03/18 10:31:16;;;;;;;3.20;3.00;;;13.30;99.90;;;;;;4981679;28;20258;-66
2022/03/18 10:39:24;;;;;;;2.67;2.47;;;13.90;99.90;;;;;;4981964;28;20251;-67
2022/03/18 10:41:51;;;;;;;3.43;3.23;;;14.00;99.90;;;;;;4983635;28;20222;-67
2022/03/18 10:44:20;;;;;;;3.27;3.10;;;14.30;99.90;;;;;;4979684;28;20209;-66
2022/03/18 10:46:48;;;;;;;3.10;2.90;;;14.50;99.90;;;;;;4988343;28;20283;-66
2022/03/18 10:49:16;;;;;;;3.00;2.80;;;14.50;99.90;;;;;;4986610;28;20209;-67
2022/03/18 10:51:44;;;;;;;2.90;2.80;;;14.10;99.90;;;;;;4982037;28;20224;-66
2022/03/18 10:54:11;;;;;;;2.83;2.73;;;14.10;99.90;;;;;;4986054;28;20203;-67
2022/03/18 10:56:56;;;;;;;2.97;2.87;;;14.20;99.90;;;;;;4992942;28;20251;-66
2022/03/18 10:59:27;;;;;;;2.60;2.50;;;14.50;99.90;;;;;;4994649;28;20210;-66
2022/03/18 11:01:56;;;;;;;2.53;2.43;;;14.70;99.90;;;;;;4986884;28;20199;-68
2022/03/18 11:04:24;;;;;;;2.83;2.73;;;15.00;99.90;;;;;;4980452;28;20279;-67
2022/03/18 11:12:28;;;;;;;2.73;2.63;;;15.50;99.90;;;;;;4971403;28;20233;-67
2022/03/18 11:14:58;;;;;;;3.47;3.27;;;15.80;99.90;;;;;;4990141;28;20316;-66
2022/03/18 11:17:25;;;;;;;3.30;3.00;;;15.70;99.90;;;;;;4978328;28;20230;-67
2022/03/18 11:19:53;;;;;;;2.80;2.70;;;15.80;99.90;;;;;;4981575;28;20203;-67
2022/03/18 11:22:22;;;;;;;3.10;2.90;;;15.70;99.90;;;;;;4988225;28;20214;-68
2022/03/18 11:24:50;;;;;;;3.00;2.90;;;15.80;99.90;;;;;;4974363;28;20222;-66
2022/03/18 11:27:17;;;;;;;3.17;2.97;;;15.80;99.90;;;;;;4977548;28;20269;-66
2022/03/18 11:29:44;;;;;;;3.03;2.90;;;15.80;99.90;;;;;;4983176;28;20214;-66
2022/03/18 11:32:24;;;;;;;3.27;3.17;;;15.60;99.90;;;;;;4975243;28;20302;-65
2022/03/18 11:34:56;;;;;;;3.27;3.07;;;15.70;99.90;;;;;;4929265;28;1412348;-66
2022/03/18 11:37:25;;;;;;;6.90;3.53;;;15.70;99.90;;;;;;4979751;28;20203;-66
2022/03/18 11:39:52;;;;;;;3.50;3.30;;;15.60;99.90;;;;;;4980216;28;20666;-67
2022/03/18 11:42:20;;;;;;;3.27;3.07;;;15.60;99.90;;;;;;4981684;28;20591;-67
2022/03/18 11:44:53;;;;;;;3.13;3.00;;;15.60;99.90;;;;;;4977720;28;20242;-65
2022/03/18 11:47:45;;;;;;;3.00;2.90;;;15.70;99.90;;;;;;4979691;28;20291;-66
2022/03/18 11:50:48;;;;;;;2.57;2.47;;;15.70;99.90;;;;;;4982952;28;20644;-66
2022/03/18 11:53:36;;;;;;;2.70;2.60;;;16.00;99.90;;;;;;4977469;28;20250;-67
2022/03/18 11:56:11;;;;;;;3.10;2.90;;;16.20;99.90;;;;;;4996948;28;20226;-66
2022/03/18 11:58:38;;;;;;;2.90;2.80;;;16.30;99.90;;;;;;5007972;28;20214;-66
2022/03/18 12:01:05;;;;;;;2.50;2.40;;;16.30;99.90;;;;;;4998279;28;20285;-65
2022/03/18 12:03:37;;;;;;;3.10;2.90;;;16.30;99.90;;;;;;4997144;28;20206;-67
2022/03/18 12:06:04;;;;;;;3.07;2.90;;;16.30;99.90;;;;;;5013050;28;20325;-66
2022/03/18 12:09:00;;;;;;;2.63;2.50;;;16.20;99.90;;;;;;5003471;28;20238;-66
2022/03/18 12:11:36;;;;;;;2.67;2.57;;;16.30;99.90;;;;;;5003082;28;20295;-65
2022/03/18 12:14:05;;;;;;;2.70;2.60;;;16.20;99.90;;;;;;5010840;28;20216;-66
2022/03/18 12:16:32;;;;;;;3.07;2.87;;;16.30;99.90;;;;;;5002094;28;20309;-66
2022/03/18 12:19:11;;;;;;;2.63;2.53;;;16.30;99.90;;;;;;4999790;28;20649;-66
2022/03/18 12:21:43;;;;;;;3.40;3.20;;;16.30;99.90;;;;;;5001900;28;20213;-65
2022/03/18 12:24:12;;;;;;;3.10;3.00;;;16.00;99.90;;;;;;4996654;28;20213;-66
2022/03/18 12:26:40;;;;;;;2.93;2.83;;;15.90;99.90;;;;;;4996386;28;20206;-65
2022/03/18 12:29:08;;;;;;;2.70;2.60;;;15.80;99.90;;;;;;4994037;28;20289;-65
2022/03/18 12:31:35;;;;;;;3.70;3.40;;;16.00;99.90;;;;;;4995584;28;20226;-66
2022/03/18 12:34:08;;;;;;;2.70;2.60;;;16.00;99.90;;;;;;4992398;28;20234;-66
2022/03/18 12:36:36;;;;;;;2.50;2.40;;;16.30;99.90;;;;;;4998595;28;20321;-65
2022/03/18 12:39:11;;;;;;;2.80;2.70;;;16.40;99.90;;;;;;4996289;28;20576;-65
2022/03/18 12:41:40;;;;;;;2.83;2.73;;;16.10;99.90;;;;;;5004345;28;20735;-65
2022/03/18 12:44:07;;;;;;;3.00;2.80;;;16.20;99.90;;;;;;5001338;28;20206;-65
2022/03/18 12:46:35;;;;;;;2.73;2.63;;;16.10;99.90;;;;;;5004829;28;20229;-65
2022/03/18 12:49:06;;;;;;;2.77;2.67;;;16.10;99.90;;;;;;4988020;28;20696;-64
2022/03/18 12:51:35;;;;;;;3.03;2.90;;;16.10;99.90;;;;;;4986624;28;20700;-66
2022/03/18 12:54:02;;;;;;;2.80;2.70;;;16.20;99.90;;;;;;4981749;28;20214;-65
2022/03/18 12:56:30;;;;;;;3.20;3.10;;;16.20;99.90;;;;;;5000623;28;20301;-66
2022/03/18 12:58:58;;;;;;;2.90;2.80;;;16.20;99.90;;;;;;4998799;28;20289;-65
2022/03/18 13:01:25;;;;;;;3.23;3.03;;;16.10;99.90;;;;;;4995030;28;20555;-64
2022/03/18 13:03:55;;;;;;;3.23;3.03;;;16.00;99.90;;;;;;4989592;28;20210;-66
2022/03/18 13:06:27;;;;;;;3.37;3.23;;;16.00;99.90;;;;;;4996245;28;20280;-64
2022/03/18 13:09:05;;;;;;;3.00;2.90;;;15.80;99.90;;;;;;5016726;28;20292;-66
2022/03/18 13:11:35;;;;;;;3.20;3.10;;;15.80;99.90;;;;;;5030286;28;20208;-65
2022/03/18 13:14:04;;;;;;;3.08;2.95;;;15.90;99.90;;;;;;5018216;28;20209;-66
2022/03/18 13:16:41;;;;;;;3.00;2.90;;;15.80;99.90;;;;;;4999283;28;20222;-65
2022/03/18 13:19:09;;;;;;;3.10;2.93;;;15.90;99.90;;;;;;4995649;28;20208;-66
2022/03/18 13:21:47;;;;;;;3.00;2.80;;;15.90;99.90;;;;;;4988196;28;20256;-66
2022/03/18 13:24:15;;;;;;;3.50;3.28;;;16.00;99.90;;;;;;4981520;28;20745;-66
2022/03/18 13:26:47;;;;;;;3.53;3.33;;;16.00;99.90;;;;;;4988529;28;20205;-65
2022/03/18 13:29:14;;;;;;;3.63;3.43;;;16.20;99.90;;;;;;4996202;28;20205;-65